sensor_id;sensor_type;location;lat;lon;timestamp;pressure;altitude;pressure_sealevel;temperature;humidity
44140;BME280;29803;51.048;4.686;2023-05-29T00:01:37;102155.16;;;13.96;100.00
44140;BME280;29803;51.048;4.686;2023-05-29T00:04:08;102158.84;;;13.95;100.00
44140;BME280;29803;51.048;4.686;2023-05-29T00:06:38;102168.13;;;13.92;100.00
44140;BME280;29803;51.048;4.686;2023-05-29T00:09:09;102173.69;;;13.91;100.00
44140;BME280;29803;51.048;4.686;2023-05-29T00:11:39;102172.59;;;13.84;100.00
44140;BME280;29803;51.048;4.686;2023-05-29T00:14:10;102162.25;;;13.79;100.00
44140;BME280;29803;51.048;4.686;2023-05-29T00:16:44;102174.22;;;13.77;100.00
44140;BME280;29803;51.048;4.686;2023-05-29T00:19:15;102176.19;;;13.74;100.00
44140;BME280;29803;51.048;4.686;2023-05-29T00:22:01;102172.28;;;13.69;100.00
44140;BME280;29803;51.048;4.686;2023-05-29T00:24:32;102179.81;;;13.65;100.00
44140;BME280;29803;51.048;4.686;2023-05-29T00:27:03;102189.53;;;13.58;100.00
44140;BME280;29803;51.048;4.686;2023-05-29T00:29:34;102188.00;;;13.56;100.00
44140;BME280;29803;51.048;4.686;2023-05-29T00:32:06;102183.75;;;13.53;100.00
44140;BME280;29803;51.048;4.686;2023-05-29T00:34:36;102188.94;;;13.46;100.00
44140;BME280;29803;51.048;4.686;2023-05-29T00:37:07;102184.28;;;13.39;100.00
44140;BME280;29803;51.048;4.686;2023-05-29T00:39:37;102188.28;;;13.35;100.00
44140;BME280;29803;51.048;4.686;2023-05-29T00:42:08;102192.28;;;13.31;100.00
44140;BME280;29803;51.048;4.686;2023-05-29T00:44:38;102195.84;;;13.31;100.00
44140;BME280;29803;51.048;4.686;2023-05-29T00:47:09;102195.56;;;13.25;100.00
44140;BME280;29803;51.048;4.686;2023-05-29T00:49:40;102194.88;;;13.23;100.00
44140;BME280;29803;51.048;4.686;2023-05-29T00:52:12;102196.00;;;13.20;100.00
44140;BME280;29803;51.048;4.686;2023-05-29T00:54:44;102203.69;;;13.15;100.00
44140;BME280;29803;51.048;4.686;2023-05-29T00:57:16;102200.75;;;13.08;100.00
44140;BME280;29803;51.048;4.686;2023-05-29T00:59:47;102206.44;;;13.05;100.00
44140;BME280;29803;51.048;4.686;2023-05-29T01:02:18;102201.34;;;13.02;100.00
44140;BME280;29803;51.048;4.686;2023-05-29T01:04:50;102212.72;;;12.96;100.00
44140;BME280;29803;51.048;4.686;2023-05-29T01:07:33;102203.25;;;12.92;100.00
44140;BME280;29803;51.048;4.686;2023-05-29T01:10:13;102213.28;;;12.90;100.00
44140;BME280;29803;51.048;4.686;2023-05-29T01:12:49;102216.59;;;12.84;100.00
44140;BME280;29803;51.048;4.686;2023-05-29T01:15:46;102202.59;;;12.80;100.00
44140;BME280;29803;51.048;4.686;2023-05-29T01:27:37;102224.06;;;12.53;100.00
44140;BME280;29803;51.048;4.686;2023-05-29T01:30:31;102226.16;;;12.59;100.00
44140;BME280;29803;51.048;4.686;2023-05-29T01:33:03;102227.31;;;12.56;100.00
44140;BME280;29803;51.048;4.686;2023-05-29T01:35:34;102221.63;;;12.59;100.00
44140;BME280;29803;51.048;4.686;2023-05-29T01:38:05;102229.59;;;12.51;100.00
44140;BME280;29803;51.048;4.686;2023-05-29T01:40:35;102223.63;;;12.57;100.00
44140;BME280;29803;51.048;4.686;2023-05-29T01:43:07;102232.56;;;12.58;100.00
44140;BME280;29803;51.048;4.686;2023-05-29T01:45:38;102232.84;;;12.55;100.00
44140;BME280;29803;51.048;4.686;2023-05-29T01:48:10;102234.41;;;12.48;100.00
44140;BME280;29803;51.048;4.686;2023-05-29T01:50:41;102234.56;;;12.46;100.00
44140;BME280;29803;51.048;4.686;2023-05-29T01:53:14;102233.16;;;12.42;100.00
44140;BME280;29803;51.048;4.686;2023-05-29T01:55:45;102234.03;;;12.33;100.00
44140;BME280;29803;51.048;4.686;2023-05-29T01:58:17;102240.69;;;12.29;100.00
44140;BME280;29803;51.048;4.686;2023-05-29T02:00:48;102247.47;;;12.23;100.00
44140;BME280;29803;51.048;4.686;2023-05-29T02:03:19;102242.94;;;12.14;100.00
44140;BME280;29803;51.048;4.686;2023-05-29T02:05:51;102244.38;;;12.08;100.00
44140;BME280;29803;51.048;4.686;2023-05-29T02:08:22;102238.41;;;12.05;100.00
44140;BME280;29803;51.048;4.686;2023-05-29T02:10:53;102238.16;;;11.98;100.00
44140;BME280;29803;51.048;4.686;2023-05-29T02:13:24;102239.56;;;11.92;100.00
44140;BME280;29803;51.048;4.686;2023-05-29T02:15:55;102248.78;;;11.90;100.00
44140;BME280;29803;51.048;4.686;2023-05-29T02:18:26;102244.66;;;11.86;100.00
44140;BME280;29803;51.048;4.686;2023-05-29T02:20:57;102253.72;;;11.85;100.00
44140;BME280;29803;51.048;4.686;2023-05-29T02:23:27;102253.13;;;11.81;100.00
44140;BME280;29803;51.048;4.686;2023-05-29T02:25:58;102252.53;;;11.78;100.00
44140;BME280;29803;51.048;4.686;2023-05-29T02:28:28;102245.47;;;11.77;100.00
44140;BME280;29803;51.048;4.686;2023-05-29T02:30:59;102241.78;;;11.68;100.00
44140;BME280;29803;51.048;4.686;2023-05-29T02:33:29;102243.03;;;11.64;100.00
44140;BME280;29803;51.048;4.686;2023-05-29T02:36:00;102243.88;;;11.64;100.00
44140;BME280;29803;51.048;4.686;2023-05-29T02:38:30;102233.69;;;11.58;100.00
44140;BME280;29803;51.048;4.686;2023-05-29T02:41:01;102234.97;;;11.54;100.00
44140;BME280;29803;51.048;4.686;2023-05-29T02:43:31;102241.63;;;11.50;100.00
44140;BME280;29803;51.048;4.686;2023-05-29T02:46:02;102240.34;;;11.45;100.00
44140;BME280;29803;51.048;4.686;2023-05-29T02:48:32;102240.31;;;11.35;100.00
44140;BME280;29803;51.048;4.686;2023-05-29T02:51:03;102225.44;;;11.31;100.00
44140;BME280;29803;51.048;4.686;2023-05-29T02:53:33;102232.78;;;11.29;100.00
44140;BME280;29803;51.048;4.686;2023-05-29T02:56:05;102226.72;;;11.27;100.00
44140;BME280;29803;51.048;4.686;2023-05-29T02:58:36;102232.34;;;11.24;100.00
44140;BME280;29803;51.048;4.686;2023-05-29T03:01:06;102237.28;;;11.19;100.00
44140;BME280;29803;51.048;4.686;2023-05-29T03:03:37;102240.25;;;11.15;100.00
44140;BME280;29803;51.048;4.686;2023-05-29T03:06:08;102237.97;;;11.11;100.00
44140;BME280;29803;51.048;4.686;2023-05-29T03:08:40;102232.28;;;11.04;100.00
44140;BME280;29803;51.048;4.686;2023-05-29T03:11:11;102241.59;;;11.00;100.00
44140;BME280;29803;51.048;4.686;2023-05-29T03:13:42;102248.22;;;10.96;100.00
44140;BME280;29803;51.048;4.686;2023-05-29T03:16:12;102255.69;;;10.93;100.00
44140;BME280;29803;51.048;4.686;2023-05-29T03:18:43;102261.19;;;10.91;100.00
44140;BME280;29803;51.048;4.686;2023-05-29T03:21:13;102257.94;;;10.87;100.00
44140;BME280;29803;51.048;4.686;2023-05-29T03:23:44;102263.44;;;10.86;100.00
44140;BME280;29803;51.048;4.686;2023-05-29T03:26:14;102258.31;;;10.83;100.00
44140;BME280;29803;51.048;4.686;2023-05-29T03:28:45;102257.47;;;10.82;100.00
44140;BME280;29803;51.048;4.686;2023-05-29T03:31:16;102259.56;;;10.79;100.00
44140;BME280;29803;51.048;4.686;2023-05-29T03:33:47;102256.31;;;10.75;100.00
44140;BME280;29803;51.048;4.686;2023-05-29T03:36:18;102254.03;;;10.71;100.00
44140;BME280;29803;51.048;4.686;2023-05-29T03:38:49;102263.06;;;10.70;100.00
44140;BME280;29803;51.048;4.686;2023-05-29T03:41:19;102256.72;;;10.71;100.00
44140;BME280;29803;51.048;4.686;2023-05-29T03:43:50;102257.72;;;10.70;100.00
44140;BME280;29803;51.048;4.686;2023-05-29T03:46:21;102263.34;;;10.67;100.00
44140;BME280;29803;51.048;4.686;2023-05-29T03:48:51;102273.47;;;10.63;100.00
44140;BME280;29803;51.048;4.686;2023-05-29T03:51:22;102268.63;;;10.57;100.00
44140;BME280;29803;51.048;4.686;2023-05-29T03:53:52;102267.78;;;10.56;100.00
44140;BME280;29803;51.048;4.686;2023-05-29T03:56:23;102268.00;;;10.65;100.00
44140;BME280;29803;51.048;4.686;2023-05-29T03:58:53;102268.94;;;10.63;100.00
44140;BME280;29803;51.048;4.686;2023-05-29T04:01:25;102274.47;;;10.62;100.00
44140;BME280;29803;51.048;4.686;2023-05-29T04:03:55;102281.53;;;10.63;100.00
44140;BME280;29803;51.048;4.686;2023-05-29T04:06:26;102284.59;;;10.58;100.00
44140;BME280;29803;51.048;4.686;2023-05-29T04:08:57;102285.34;;;10.60;100.00
44140;BME280;29803;51.048;4.686;2023-05-29T04:11:27;102298.63;;;10.62;100.00
44140;BME280;29803;51.048;4.686;2023-05-29T04:13:58;102292.41;;;10.61;100.00
44140;BME280;29803;51.048;4.686;2023-05-29T04:16:28;102301.28;;;10.62;100.00
44140;BME280;29803;51.048;4.686;2023-05-29T04:18:59;102303.84;;;10.63;100.00
44140;BME280;29803;51.048;4.686;2023-05-29T04:21:29;102297.63;;;10.63;100.00
44140;BME280;29803;51.048;4.686;2023-05-29T04:24:03;102306.66;;;10.62;100.00
44140;BME280;29803;51.048;4.686;2023-05-29T04:26:33;102306.66;;;10.62;100.00
44140;BME280;29803;51.048;4.686;2023-05-29T04:29:04;102306.06;;;10.58;100.00
44140;BME280;29803;51.048;4.686;2023-05-29T04:31:35;102304.81;;;10.62;100.00
44140;BME280;29803;51.048;4.686;2023-05-29T04:34:07;102300.31;;;10.63;100.00
44140;BME280;29803;51.048;4.686;2023-05-29T04:36:37;102297.75;;;10.61;100.00
44140;BME280;29803;51.048;4.686;2023-05-29T04:39:09;102315.03;;;10.69;100.00
44140;BME280;29803;51.048;4.686;2023-05-29T04:41:40;102314.63;;;10.73;100.00
44140;BME280;29803;51.048;4.686;2023-05-29T04:44:11;102318.91;;;10.76;100.00
44140;BME280;29803;51.048;4.686;2023-05-29T04:46:41;102334.03;;;10.77;100.00
44140;BME280;29803;51.048;4.686;2023-05-29T04:49:14;102331.81;;;10.82;100.00
44140;BME280;29803;51.048;4.686;2023-05-29T04:51:44;102334.22;;;10.85;100.00
44140;BME280;29803;51.048;4.686;2023-05-29T04:54:16;102329.72;;;10.85;100.00
44140;BME280;29803;51.048;4.686;2023-05-29T04:56:47;102323.09;;;10.89;100.00
44140;BME280;29803;51.048;4.686;2023-05-29T04:59:18;102336.38;;;10.91;100.00
44140;BME280;29803;51.048;4.686;2023-05-29T05:01:48;102339.38;;;10.98;100.00
44140;BME280;29803;51.048;4.686;2023-05-29T05:04:19;102347.03;;;11.02;100.00
44140;BME280;29803;51.048;4.686;2023-05-29T05:06:50;102340.56;;;11.05;100.00
44140;BME280;29803;51.048;4.686;2023-05-29T05:09:21;102341.97;;;11.09;100.00
44140;BME280;29803;51.048;4.686;2023-05-29T05:11:52;102346.94;;;11.13;100.00
44140;BME280;29803;51.048;4.686;2023-05-29T05:14:22;102346.94;;;11.13;100.00
44140;BME280;29803;51.048;4.686;2023-05-29T05:16:53;102351.81;;;11.20;100.00
44140;BME280;29803;51.048;4.686;2023-05-29T05:19:23;102353.22;;;11.24;100.00
44140;BME280;29803;51.048;4.686;2023-05-29T05:21:54;102345.50;;;11.30;100.00
44140;BME280;29803;51.048;4.686;2023-05-29T05:24:24;102354.00;;;11.35;100.00
44140;BME280;29803;51.048;4.686;2023-05-29T05:26:55;102346.50;;;11.39;100.00
44140;BME280;29803;51.048;4.686;2023-05-29T05:29:25;102351.47;;;11.44;100.00
44140;BME280;29803;51.048;4.686;2023-05-29T05:31:56;102348.69;;;11.45;100.00
44140;BME280;29803;51.048;4.686;2023-05-29T05:34:26;102356.91;;;11.53;100.00
44140;BME280;29803;51.048;4.686;2023-05-29T05:36:57;102356.94;;;11.63;100.00
44140;BME280;29803;51.048;4.686;2023-05-29T05:39:27;102363.59;;;11.68;100.00
44140;BME280;29803;51.048;4.686;2023-05-29T05:41:58;102352.31;;;11.75;100.00
44140;BME280;29803;51.048;4.686;2023-05-29T05:44:28;102359.44;;;11.85;100.00
44140;BME280;29803;51.048;4.686;2023-05-29T05:46:59;102378.84;;;11.99;100.00
44140;BME280;29803;51.048;4.686;2023-05-29T05:49:29;102372.38;;;12.11;100.00
44140;BME280;29803;51.048;4.686;2023-05-29T05:52:00;102373.34;;;12.19;100.00
44140;BME280;29803;51.048;4.686;2023-05-29T05:54:30;102369.84;;;12.38;100.00
44140;BME280;29803;51.048;4.686;2023-05-29T05:57:01;102369.84;;;12.77;100.00
44140;BME280;29803;51.048;4.686;2023-05-29T05:59:33;102372.84;;;13.40;100.00
44140;BME280;29803;51.048;4.686;2023-05-29T06:02:03;102372.69;;;13.97;100.00
44140;BME280;29803;51.048;4.686;2023-05-29T06:04:34;102371.59;;;14.53;100.00
44140;BME280;29803;51.048;4.686;2023-05-29T06:07:05;102374.00;;;15.00;100.00
44140;BME280;29803;51.048;4.686;2023-05-29T06:09:37;102373.44;;;15.48;100.00
44140;BME280;29803;51.048;4.686;2023-05-29T06:12:08;102372.97;;;15.87;100.00
44140;BME280;29803;51.048;4.686;2023-05-29T06:14:38;102372.88;;;16.21;100.00
44140;BME280;29803;51.048;4.686;2023-05-29T06:17:10;102376.31;;;16.48;100.00
44140;BME280;29803;51.048;4.686;2023-05-29T06:19:40;102375.13;;;16.58;100.00
44140;BME280;29803;51.048;4.686;2023-05-29T06:22:11;102382.78;;;16.79;100.00
44140;BME280;29803;51.048;4.686;2023-05-29T06:24:42;102385.47;;;17.04;100.00
44140;BME280;29803;51.048;4.686;2023-05-29T06:27:12;102388.94;;;17.45;100.00
44140;BME280;29803;51.048;4.686;2023-05-29T06:29:43;102397.72;;;17.55;100.00
44140;BME280;29803;51.048;4.686;2023-05-29T06:32:13;102392.47;;;17.62;100.00
44140;BME280;29803;51.048;4.686;2023-05-29T06:34:44;102382.34;;;17.48;100.00
44140;BME280;29803;51.048;4.686;2023-05-29T06:37:14;102376.53;;;17.51;100.00
44140;BME280;29803;51.048;4.686;2023-05-29T06:39:45;102379.03;;;17.69;100.00
44140;BME280;29803;51.048;4.686;2023-05-29T06:42:16;102375.50;;;17.60;100.00
44140;BME280;29803;51.048;4.686;2023-05-29T06:44:46;102388.34;;;17.82;100.00
44140;BME280;29803;51.048;4.686;2023-05-29T06:47:17;102387.44;;;17.90;100.00
44140;BME280;29803;51.048;4.686;2023-05-29T06:49:47;102387.19;;;18.08;100.00
44140;BME280;29803;51.048;4.686;2023-05-29T06:52:18;102394.47;;;18.38;100.00
44140;BME280;29803;51.048;4.686;2023-05-29T06:54:48;102396.44;;;18.45;100.00
44140;BME280;29803;51.048;4.686;2023-05-29T06:57:19;102403.72;;;18.21;100.00
44140;BME280;29803;51.048;4.686;2023-05-29T06:59:49;102398.69;;;18.10;100.00
44140;BME280;29803;51.048;4.686;2023-05-29T07:02:20;102395.47;;;18.15;100.00
44140;BME280;29803;51.048;4.686;2023-05-29T07:04:51;102397.91;;;18.32;100.00
44140;BME280;29803;51.048;4.686;2023-05-29T07:07:22;102392.69;;;18.46;100.00
44140;BME280;29803;51.048;4.686;2023-05-29T07:09:52;102390.09;;;18.52;100.00
44140;BME280;29803;51.048;4.686;2023-05-29T07:12:23;102391.25;;;18.35;100.00
44140;BME280;29803;51.048;4.686;2023-05-29T07:14:53;102392.41;;;18.41;100.00
44140;BME280;29803;51.048;4.686;2023-05-29T07:17:24;102396.69;;;18.81;100.00
44140;BME280;29803;51.048;4.686;2023-05-29T07:19:54;102396.69;;;18.81;100.00
44140;BME280;29803;51.048;4.686;2023-05-29T07:22:25;102391.63;;;19.30;100.00
44140;BME280;29803;51.048;4.686;2023-05-29T07:24:56;102396.59;;;19.56;100.00
44140;BME280;29803;51.048;4.686;2023-05-29T07:27:26;102399.53;;;19.84;100.00
44140;BME280;29803;51.048;4.686;2023-05-29T07:29:57;102404.72;;;20.15;100.00
44140;BME280;29803;51.048;4.686;2023-05-29T07:32:28;102404.44;;;20.25;100.00
44140;BME280;29803;51.048;4.686;2023-05-29T07:34:58;102401.50;;;20.27;100.00
44140;BME280;29803;51.048;4.686;2023-05-29T07:37:29;102395.25;;;20.48;100.00
44140;BME280;29803;51.048;4.686;2023-05-29T07:40:00;102391.31;;;20.14;100.00
44140;BME280;29803;51.048;4.686;2023-05-29T07:42:32;102397.13;;;20.11;100.00
44140;BME280;29803;51.048;4.686;2023-05-29T07:45:03;102398.41;;;19.94;100.00
44140;BME280;29803;51.048;4.686;2023-05-29T07:47:33;102392.47;;;20.26;100.00
44140;BME280;29803;51.048;4.686;2023-05-29T07:50:04;102390.72;;;20.55;100.00
44140;BME280;29803;51.048;4.686;2023-05-29T07:52:36;102397.03;;;20.19;100.00
44140;BME280;29803;51.048;4.686;2023-05-29T07:55:07;102404.72;;;20.52;100.00
44140;BME280;29803;51.048;4.686;2023-05-29T07:57:37;102400.91;;;20.31;100.00
44140;BME280;29803;51.048;4.686;2023-05-29T08:00:09;102404.97;;;20.35;100.00
44140;BME280;29803;51.048;4.686;2023-05-29T08:02:42;102397.50;;;20.08;100.00
44140;BME280;29803;51.048;4.686;2023-05-29T08:05:13;102396.06;;;20.27;100.00
44140;BME280;29803;51.048;4.686;2023-05-29T08:07:44;102402.53;;;20.26;100.00
44140;BME280;29803;51.048;4.686;2023-05-29T08:10:14;102404.38;;;20.40;100.00
44140;BME280;29803;51.048;4.686;2023-05-29T08:12:45;102390.78;;;20.61;100.00
44140;BME280;29803;51.048;4.686;2023-05-29T08:15:15;102388.31;;;20.66;100.00
44140;BME280;29803;51.048;4.686;2023-05-29T08:17:46;102401.66;;;20.40;100.00
44140;BME280;29803;51.048;4.686;2023-05-29T08:20:17;102393.34;;;20.48;100.00
44140;BME280;29803;51.048;4.686;2023-05-29T08:22:47;102399.47;;;20.72;100.00
44140;BME280;29803;51.048;4.686;2023-05-29T08:25:18;102400.25;;;20.65;100.00
44140;BME280;29803;51.048;4.686;2023-05-29T08:27:48;102397.78;;;20.71;100.00
44140;BME280;29803;51.048;4.686;2023-05-29T08:30:19;102403.38;;;20.84;100.00
44140;BME280;29803;51.048;4.686;2023-05-29T08:32:50;102406.75;;;21.14;100.00
44140;BME280;29803;51.048;4.686;2023-05-29T08:35:21;102406.75;;;21.42;100.00
44140;BME280;29803;51.048;4.686;2023-05-29T08:37:52;102404.84;;;21.36;100.00
44140;BME280;29803;51.048;4.686;2023-05-29T08:40:22;102400.47;;;21.48;100.00
44140;BME280;29803;51.048;4.686;2023-05-29T08:42:57;102399.53;;;21.62;100.00
44140;BME280;29803;51.048;4.686;2023-05-29T08:45:31;102413.25;;;21.76;100.00
44140;BME280;29803;51.048;4.686;2023-05-29T08:48:03;102408.25;;;21.79;100.00
44140;BME280;29803;51.048;4.686;2023-05-29T08:50:35;102411.66;;;21.94;100.00
44140;BME280;29803;51.048;4.686;2023-05-29T08:53:06;102411.34;;;22.17;100.00
44140;BME280;29803;51.048;4.686;2023-05-29T08:55:36;102415.63;;;22.46;96.40
44140;BME280;29803;51.048;4.686;2023-05-29T08:58:07;102416.13;;;21.67;100.00
44140;BME280;29803;51.048;4.686;2023-05-29T09:00:38;102416.25;;;21.53;100.00
44140;BME280;29803;51.048;4.686;2023-05-29T09:03:10;102421.03;;;21.79;100.00
44140;BME280;29803;51.048;4.686;2023-05-29T09:05:42;102411.69;;;22.08;100.00
44140;BME280;29803;51.048;4.686;2023-05-29T09:08:13;102416.22;;;22.29;100.00
44140;BME280;29803;51.048;4.686;2023-05-29T09:10:45;102419.28;;;22.06;100.00
44140;BME280;29803;51.048;4.686;2023-05-29T09:13:15;102420.38;;;22.18;100.00
44140;BME280;29803;51.048;4.686;2023-05-29T09:15:46;102419.97;;;22.14;100.00
44140;BME280;29803;51.048;4.686;2023-05-29T09:18:17;102422.31;;;22.24;99.33
44140;BME280;29803;51.048;4.686;2023-05-29T09:20:48;102426.47;;;22.13;100.00
44140;BME280;29803;51.048;4.686;2023-05-29T09:23:18;102419.59;;;22.24;92.21
44140;BME280;29803;51.048;4.686;2023-05-29T09:25:52;102413.22;;;21.69;100.00
44140;BME280;29803;51.048;4.686;2023-05-29T09:28:23;102419.63;;;21.89;100.00
44140;BME280;29803;51.048;4.686;2023-05-29T09:30:56;102423.06;;;22.05;100.00
44140;BME280;29803;51.048;4.686;2023-05-29T09:33:27;102420.59;;;22.16;97.98
44140;BME280;29803;51.048;4.686;2023-05-29T09:35:59;102425.72;;;22.39;94.98
44140;BME280;29803;51.048;4.686;2023-05-29T09:38:29;102429.47;;;22.38;100.00
44140;BME280;29803;51.048;4.686;2023-05-29T09:41:04;102429.19;;;22.13;90.79
44140;BME280;29803;51.048;4.686;2023-05-29T09:43:38;102423.13;;;22.18;99.72
44140;BME280;29803;51.048;4.686;2023-05-29T09:46:15;102422.34;;;22.44;100.00
44140;BME280;29803;51.048;4.686;2023-05-29T09:48:47;102421.94;;;22.54;94.99
44140;BME280;29803;51.048;4.686;2023-05-29T09:51:34;102431.25;;;22.66;93.86
44140;BME280;29803;51.048;4.686;2023-05-29T09:54:16;102433.34;;;22.77;94.36
44140;BME280;29803;51.048;4.686;2023-05-29T09:56:47;102430.41;;;22.85;91.15
44140;BME280;29803;51.048;4.686;2023-05-29T09:59:17;102433.97;;;22.72;87.69
44140;BME280;29803;51.048;4.686;2023-05-29T10:01:48;102419.03;;;22.62;85.35
44140;BME280;29803;51.048;4.686;2023-05-29T10:04:19;102423.88;;;22.66;92.12
44140;BME280;29803;51.048;4.686;2023-05-29T10:06:50;102419.66;;;22.84;89.36
44140;BME280;29803;51.048;4.686;2023-05-29T10:09:23;102424.91;;;22.79;91.35
44140;BME280;29803;51.048;4.686;2023-05-29T10:11:59;102416.06;;;22.50;93.04
44140;BME280;29803;51.048;4.686;2023-05-29T10:14:32;102413.34;;;22.50;91.96
44140;BME280;29803;51.048;4.686;2023-05-29T10:17:07;102421.72;;;22.48;91.16
44140;BME280;29803;51.048;4.686;2023-05-29T10:19:38;102418.53;;;22.32;88.15
44140;BME280;29803;51.048;4.686;2023-05-29T10:22:10;102414.59;;;22.54;91.08
44140;BME280;29803;51.048;4.686;2023-05-29T10:24:40;102421.31;;;22.52;93.05
44140;BME280;29803;51.048;4.686;2023-05-29T10:27:11;102419.06;;;22.75;92.11
44140;BME280;29803;51.048;4.686;2023-05-29T10:29:49;102413.16;;;22.85;86.42
44140;BME280;29803;51.048;4.686;2023-05-29T10:32:47;102402.25;;;23.05;92.80
44140;BME280;29803;51.048;4.686;2023-05-29T10:35:27;102411.28;;;23.25;90.77
44140;BME280;29803;51.048;4.686;2023-05-29T10:40:54;102415.63;;;22.40;85.47
44140;BME280;29803;51.048;4.686;2023-05-29T10:43:41;102419.22;;;22.54;92.33
44140;BME280;29803;51.048;4.686;2023-05-29T10:46:14;102419.66;;;22.70;92.82
44140;BME280;29803;51.048;4.686;2023-05-29T10:48:49;102415.03;;;22.64;90.64
44140;BME280;29803;51.048;4.686;2023-05-29T10:51:25;102407.88;;;22.83;90.39
44140;BME280;29803;51.048;4.686;2023-05-29T10:53:56;102401.63;;;22.89;92.95
44140;BME280;29803;51.048;4.686;2023-05-29T10:56:29;102411.91;;;22.94;94.80
44140;BME280;29803;51.048;4.686;2023-05-29T10:59:00;102403.06;;;22.98;92.33
44140;BME280;29803;51.048;4.686;2023-05-29T11:01:32;102413.38;;;23.03;91.10
44140;BME280;29803;51.048;4.686;2023-05-29T11:06:46;102408.53;;;22.98;85.17
44140;BME280;29803;51.048;4.686;2023-05-29T11:09:31;102392.31;;;22.77;84.64
44140;BME280;29803;51.048;4.686;2023-05-29T11:12:22;102391.72;;;23.02;89.39
44140;BME280;29803;51.048;4.686;2023-05-29T11:15:09;102393.38;;;23.09;90.45
44140;BME280;29803;51.048;4.686;2023-05-29T11:20:50;102396.53;;;23.26;84.06
44140;BME280;29803;51.048;4.686;2023-05-29T11:23:31;102382.59;;;23.34;88.64
44140;BME280;29803;51.048;4.686;2023-05-29T11:26:02;102382.00;;;23.19;91.19
44140;BME280;29803;51.048;4.686;2023-05-29T11:28:33;102382.78;;;23.39;85.92
44140;BME280;29803;51.048;4.686;2023-05-29T11:31:08;102376.63;;;23.57;86.25
44140;BME280;29803;51.048;4.686;2023-05-29T11:33:40;102383.34;;;23.74;85.15
44140;BME280;29803;51.048;4.686;2023-05-29T11:36:11;102393.47;;;23.74;79.78
44140;BME280;29803;51.048;4.686;2023-05-29T11:38:42;102392.34;;;23.88;83.35
44140;BME280;29803;51.048;4.686;2023-05-29T11:41:13;102389.50;;;23.70;80.91
44140;BME280;29803;51.048;4.686;2023-05-29T11:43:44;102380.34;;;23.11;78.16
44140;BME280;29803;51.048;4.686;2023-05-29T11:46:17;102372.13;;;23.05;87.55
44140;BME280;29803;51.048;4.686;2023-05-29T11:48:48;102376.97;;;23.16;91.12
44140;BME280;29803;51.048;4.686;2023-05-29T11:51:19;102362.41;;;23.22;85.16
44140;BME280;29803;51.048;4.686;2023-05-29T11:53:50;102364.31;;;23.08;84.96
44140;BME280;29803;51.048;4.686;2023-05-29T11:56:25;102366.47;;;22.99;87.12
44140;BME280;29803;51.048;4.686;2023-05-29T11:58:58;102366.00;;;22.83;86.38
44140;BME280;29803;51.048;4.686;2023-05-29T12:01:29;102362.22;;;22.77;85.02
44140;BME280;29803;51.048;4.686;2023-05-29T12:04:13;102362.88;;;22.92;90.54
44140;BME280;29803;51.048;4.686;2023-05-29T12:06:44;102355.47;;;23.26;92.95
44140;BME280;29803;51.048;4.686;2023-05-29T12:12:15;102363.25;;;23.09;85.01
44140;BME280;29803;51.048;4.686;2023-05-29T12:14:50;102360.91;;;23.33;88.34
44140;BME280;29803;51.048;4.686;2023-05-29T12:17:20;102361.50;;;23.48;89.80
44140;BME280;29803;51.048;4.686;2023-05-29T12:19:51;102360.25;;;23.50;88.75
44140;BME280;29803;51.048;4.686;2023-05-29T12:22:37;102352.56;;;23.79;95.92
44140;BME280;29803;51.048;4.686;2023-05-29T12:25:10;102349.38;;;23.82;88.85
44140;BME280;29803;51.048;4.686;2023-05-29T12:27:43;102358.22;;;23.84;86.16
44140;BME280;29803;51.048;4.686;2023-05-29T12:32:50;102357.47;;;23.70;83.86
44140;BME280;29803;51.048;4.686;2023-05-29T12:35:24;102354.72;;;23.64;88.34
44140;BME280;29803;51.048;4.686;2023-05-29T12:37:57;102361.50;;;23.48;83.23
44140;BME280;29803;51.048;4.686;2023-05-29T12:40:30;102349.75;;;23.27;86.63
44140;BME280;29803;51.048;4.686;2023-05-29T12:43:04;102348.69;;;23.35;92.54
44140;BME280;29803;51.048;4.686;2023-05-29T12:45:35;102363.81;;;23.44;93.19
44140;BME280;29803;51.048;4.686;2023-05-29T12:48:07;102358.16;;;23.46;90.92
44140;BME280;29803;51.048;4.686;2023-05-29T12:50:38;102354.91;;;23.69;87.61
44140;BME280;29803;51.048;4.686;2023-05-29T12:53:11;102365.69;;;23.70;85.71
44140;BME280;29803;51.048;4.686;2023-05-29T12:55:43;102359.28;;;23.05;82.51
44140;BME280;29803;51.048;4.686;2023-05-29T12:58:15;102362.22;;;23.17;95.94
44140;BME280;29803;51.048;4.686;2023-05-29T13:00:46;102369.16;;;23.26;91.14
44140;BME280;29803;51.048;4.686;2023-05-29T13:03:16;102365.53;;;23.45;88.96
44140;BME280;29803;51.048;4.686;2023-05-29T13:05:47;102367.41;;;23.45;88.31
44140;BME280;29803;51.048;4.686;2023-05-29T13:08:17;102361.69;;;23.60;88.52
44140;BME280;29803;51.048;4.686;2023-05-29T13:10:48;102361.88;;;23.58;88.02
44140;BME280;29803;51.048;4.686;2023-05-29T13:13:18;102362.34;;;23.48;81.32
44140;BME280;29803;51.048;4.686;2023-05-29T13:15:50;102371.63;;;23.34;90.38
44140;BME280;29803;51.048;4.686;2023-05-29T13:18:20;102370.34;;;23.43;87.21
44140;BME280;29803;51.048;4.686;2023-05-29T13:20:51;102365.97;;;23.36;82.74
44140;BME280;29803;51.048;4.686;2023-05-29T13:23:21;102356.28;;;23.40;84.88
44140;BME280;29803;51.048;4.686;2023-05-29T13:25:52;102357.50;;;23.44;88.07
44140;BME280;29803;51.048;4.686;2023-05-29T13:28:22;102357.31;;;23.39;88.00
44140;BME280;29803;51.048;4.686;2023-05-29T13:30:54;102354.75;;;23.44;87.74